createdAt,value
2023-04-14T00:02:24.944Z,9.50
2023-04-14T00:04:54.825Z,11.17
2023-04-14T00:07:21.894Z,6.33
2023-04-14T00:09:49.031Z,10.67
2023-04-14T00:12:16.093Z,7.37
2023-04-14T00:14:43.446Z,7.20
2023-04-14T00:17:11.000Z,10.60
2023-04-14T00:19:38.284Z,6.07
2023-04-14T00:22:05.177Z,9.90
2023-04-14T00:24:32.746Z,9.80
2023-04-14T00:26:59.769Z,9.50
2023-04-14T00:29:26.865Z,9.27
2023-04-14T00:31:54.008Z,11.83
2023-04-14T00:34:21.174Z,7.50
2023-04-14T00:36:48.084Z,12.07
2023-04-14T00:39:15.100Z,4.60
2023-04-14T00:41:43.289Z,5.13
2023-04-14T00:44:10.550Z,9.87
2023-04-14T00:46:37.711Z,8.90
2023-04-14T00:49:05.134Z,4.43
2023-04-14T00:51:32.678Z,8.67
2023-04-14T00:54:02.961Z,4.60
2023-04-14T00:56:31.376Z,4.93
2023-04-14T00:59:01.910Z,4.07
2023-04-14T01:01:29.943Z,9.83
2023-04-14T01:03:58.249Z,4.57
2023-04-14T01:06:26.847Z,6.73
2023-04-14T01:08:54.361Z,7.20
2023-04-14T01:11:39.248Z,4.40
2023-04-14T01:14:27.995Z,7.37
2023-04-14T01:17:03.906Z,5.17
2023-04-14T01:19:59.091Z,8.07
2023-04-14T01:22:31.523Z,10.47
2023-04-14T01:25:58.148Z,9.50
2023-04-14T01:28:55.262Z,11.47
2023-04-14T01:31:28.533Z,6.43
2023-04-14T01:34:12.593Z,6.90
2023-04-14T01:36:48.330Z,9.77
2023-04-14T01:39:21.198Z,7.97
2023-04-14T01:41:57.164Z,7.63
2023-04-14T01:44:26.295Z,8.73
2023-04-14T01:46:57.799Z,9.60
2023-04-14T01:49:26.881Z,7.93
2023-04-14T01:51:55.826Z,8.00
2023-04-14T01:54:23.961Z,7.17
2023-04-14T01:56:52.956Z,7.10
2023-04-14T01:59:22.850Z,8.80
2023-04-14T02:01:51.574Z,9.50
2023-04-14T02:04:23.259Z,12.47
2023-04-14T02:06:52.793Z,6.23
2023-04-14T02:09:22.202Z,14.37
2023-04-14T02:11:53.852Z,8.70
2023-04-14T02:14:23.822Z,11.20
2023-04-14T02:16:53.848Z,9.13
2023-04-14T02:19:23.052Z,8.03
2023-04-14T02:21:51.451Z,6.67
2023-04-14T02:24:19.650Z,6.87
2023-04-14T02:27:19.099Z,7.93
2023-04-14T02:29:52.783Z,5.97
2023-04-14T02:32:29.898Z,6.27
2023-04-14T02:35:12.326Z,6.57
2023-04-14T02:37:44.888Z,8.47
2023-04-14T02:40:18.731Z,7.10
2023-04-14T02:42:51.573Z,7.70
2023-04-14T02:45:23.438Z,7.97
2023-04-14T02:47:56.007Z,7.63
2023-04-14T02:50:24.264Z,7.03
2023-04-14T02:52:54.894Z,9.77
2023-04-14T02:55:23.230Z,6.97
2023-04-14T02:58:00.430Z,9.07
2023-04-14T03:00:29.124Z,7.57
2023-04-14T03:02:57.621Z,7.77
2023-04-14T03:05:25.683Z,8.83
2023-04-14T03:07:55.132Z,7.10
2023-04-14T03:10:23.315Z,8.97
2023-04-14T03:12:51.515Z,8.33
2023-04-14T03:15:22.045Z,9.37
2023-04-14T03:18:07.211Z,7.07
2023-04-14T03:20:34.777Z,11.90
2023-04-14T03:23:06.103Z,7.17
2023-04-14T03:25:39.194Z,6.93
2023-04-14T03:28:13.689Z,7.13
2023-04-14T03:30:44.786Z,9.97
2023-04-14T03:33:14.578Z,8.87
2023-04-14T03:35:42.607Z,8.67
2023-04-14T03:38:11.725Z,6.60
2023-04-14T03:40:41.234Z,9.23
2023-04-14T03:43:13.150Z,5.47
2023-04-14T03:45:40.768Z,7.17
2023-04-14T03:48:15.078Z,8.17
2023-04-14T03:50:52.112Z,8.30
2023-04-14T03:53:45.824Z,8.87
2023-04-14T03:56:20.440Z,8.57
2023-04-14T03:58:51.552Z,8.50
2023-04-14T04:01:19.772Z,8.97
2023-04-14T04:03:48.521Z,6.57
2023-04-14T04:06:16.114Z,9.63
2023-04-14T04:08:44.758Z,11.37
2023-04-14T04:11:14.598Z,8.57
2023-04-14T04:13:42.414Z,8.27
2023-04-14T04:16:12.095Z,9.17
2023-04-14T04:18:40.260Z,9.03
2023-04-14T04:21:11.737Z,11.63
2023-04-14T04:23:41.940Z,8.97
2023-04-14T04:26:09.261Z,8.30
2023-04-14T04:28:37.386Z,11.97
2023-04-14T04:31:06.243Z,11.53
2023-04-14T04:33:34.379Z,9.70
2023-04-14T04:36:03.191Z,10.90
2023-04-14T04:38:30.690Z,12.10
2023-04-14T04:40:58.056Z,13.67
2023-04-14T04:43:25.250Z,11.13
2023-04-14T04:45:58.308Z,13.33
2023-04-14T04:48:26.020Z,12.70
2023-04-14T04:50:52.982Z,10.30
2023-04-14T04:53:20.009Z,12.43
2023-04-14T04:55:47.135Z,13.80
2023-04-14T04:58:14.110Z,13.23
2023-04-14T05:00:41.239Z,12.23
2023-04-14T05:03:08.492Z,11.07
2023-04-14T05:05:37.220Z,10.90
2023-04-14T05:08:04.843Z,11.77
2023-04-14T05:10:37.061Z,8.53
2023-04-14T05:13:04.290Z,10.37
2023-04-14T05:15:31.841Z,15.10
2023-04-14T05:17:59.276Z,10.93
2023-04-14T05:20:26.364Z,9.23
2023-04-14T05:22:54.396Z,10.83
2023-04-14T05:25:22.682Z,10.83
2023-04-14T05:27:49.746Z,9.10
2023-04-14T05:30:16.774Z,8.03
2023-04-14T05:32:44.112Z,10.90
2023-04-14T05:35:11.129Z,9.90
2023-04-14T05:37:38.110Z,7.37
2023-04-14T05:40:06.104Z,7.10
2023-04-14T05:42:33.095Z,9.57
2023-04-14T05:45:00.096Z,7.63
2023-04-14T05:47:27.150Z,8.87
2023-04-14T05:49:54.135Z,10.80
2023-04-14T05:52:21.394Z,10.90
2023-04-14T05:54:48.424Z,6.57
2023-04-14T05:57:15.424Z,6.77
2023-04-14T05:59:42.555Z,7.63
2023-04-14T06:02:09.501Z,7.63
2023-04-14T06:04:36.604Z,6.87
2023-04-14T06:07:04.069Z,7.87
2023-04-14T06:09:31.690Z,8.20
2023-04-14T06:11:58.693Z,5.83
2023-04-14T06:14:25.828Z,10.93
2023-04-14T06:16:52.989Z,7.40
2023-04-14T06:19:20.291Z,7.40
2023-04-14T06:21:47.279Z,10.30
2023-04-14T06:24:14.252Z,12.40
2023-04-14T06:26:42.300Z,7.33
2023-04-14T06:29:09.438Z,5.97
2023-04-14T06:31:36.598Z,9.37
2023-04-14T06:34:03.666Z,9.40
2023-04-14T06:36:31.670Z,8.23
2023-04-14T06:38:58.953Z,8.03
2023-04-14T06:41:26.330Z,12.47
2023-04-14T06:43:53.283Z,6.03
2023-04-14T06:46:20.266Z,9.57
2023-04-14T06:48:47.369Z,9.57
2023-04-14T06:51:14.468Z,11.87
2023-04-14T06:53:41.544Z,4.97
2023-04-14T06:56:08.738Z,7.60
2023-04-14T06:58:35.960Z,9.10
2023-04-14T07:01:04.090Z,5.83
2023-04-14T07:03:33.057Z,7.83
2023-04-14T07:06:09.434Z,7.27
2023-04-14T07:08:38.176Z,5.77
2023-04-14T07:11:11.361Z,9.07
2023-04-14T07:13:39.277Z,5.23
2023-04-14T07:16:07.546Z,5.47
2023-04-14T07:18:35.421Z,9.97
2023-04-14T07:21:02.588Z,9.17
2023-04-14T07:23:29.735Z,5.77
2023-04-14T07:25:59.278Z,5.87
2023-04-14T07:28:28.157Z,8.20
2023-04-14T07:30:55.365Z,9.03
2023-04-14T07:33:22.762Z,6.47
2023-04-14T07:36:03.123Z,4.63
2023-04-14T07:38:33.133Z,5.03
2023-04-14T07:41:04.283Z,5.13
2023-04-14T07:43:37.484Z,5.40
2023-04-14T07:46:06.928Z,6.83
2023-04-14T07:48:36.390Z,7.00
2023-04-14T07:51:05.442Z,6.00
2023-04-14T07:53:33.578Z,8.70
2023-04-14T07:56:00.960Z,8.77
2023-04-14T07:58:29.555Z,6.47
2023-04-14T08:00:57.690Z,9.03
2023-04-14T08:03:24.697Z,5.30
2023-04-14T08:05:52.416Z,7.27
2023-04-14T08:08:19.693Z,5.93
2023-04-14T08:10:46.716Z,3.60
2023-04-14T08:13:13.665Z,6.57
2023-04-14T08:15:40.805Z,7.93
2023-04-14T08:18:07.910Z,7.73
2023-04-14T08:20:34.890Z,4.77
2023-04-14T08:23:01.921Z,8.03
2023-04-14T08:25:30.666Z,6.20
2023-04-14T08:27:57.619Z,7.05
2023-04-14T08:30:24.788Z,3.93
2023-04-14T08:32:51.942Z,3.10
2023-04-14T08:35:38.835Z,5.33
2023-04-14T08:38:06.178Z,8.30
2023-04-14T08:40:44.161Z,5.73
2023-04-14T08:43:13.891Z,9.00
2023-04-14T08:45:43.055Z,4.13
2023-04-14T08:48:12.181Z,6.63
2023-04-14T08:50:49.575Z,3.60
2023-04-14T08:53:18.592Z,6.27
2023-04-14T08:55:46.131Z,6.30
2023-04-14T08:58:13.058Z,8.03
2023-04-14T09:00:41.648Z,7.33
2023-04-14T09:03:09.445Z,10.53
2023-04-14T09:05:37.364Z,4.53
2023-04-14T09:08:04.826Z,7.83
2023-04-14T09:10:32.663Z,5.60
2023-04-14T09:13:00.339Z,6.07
2023-04-14T09:15:29.076Z,11.27
2023-04-14T09:17:56.632Z,8.10
2023-04-14T09:20:38.038Z,5.93
2023-04-14T09:23:10.027Z,9.20
2023-04-14T09:25:41.069Z,6.03
2023-04-14T09:28:08.777Z,5.00
2023-04-14T09:30:35.710Z,7.90
2023-04-14T09:35:53.767Z,9.93
2023-04-14T09:38:36.550Z,6.60
2023-04-14T09:41:06.101Z,6.73
2023-04-14T09:43:33.312Z,8.17
2023-04-14T09:46:08.641Z,7.73
2023-04-14T09:48:39.277Z,5.23
2023-04-14T09:51:14.021Z,7.53
2023-04-14T09:53:41.364Z,3.67
2023-04-14T09:56:11.768Z,5.87
2023-04-14T09:58:44.333Z,7.00
2023-04-14T10:01:19.909Z,5.55
2023-04-14T10:03:49.043Z,4.70
2023-04-14T10:06:19.033Z,8.85
2023-04-14T10:08:48.672Z,6.30
2023-04-14T10:11:32.709Z,4.63
2023-04-14T10:14:06.438Z,5.73
2023-04-14T10:16:34.713Z,7.33
2023-04-14T10:19:03.030Z,5.17
2023-04-14T10:21:30.681Z,5.10
2023-04-14T10:23:58.098Z,3.83
2023-04-14T10:26:26.422Z,4.97
2023-04-14T10:28:55.504Z,7.83
2023-04-14T10:31:38.348Z,6.20
2023-04-14T10:34:13.777Z,7.77
2023-04-14T10:36:41.517Z,6.20
2023-04-14T10:39:11.015Z,3.95
2023-04-14T10:41:43.928Z,7.13
2023-04-14T10:44:34.975Z,3.08
2023-04-14T10:47:08.463Z,2.90
2023-04-14T10:49:41.125Z,2.30
2023-04-14T10:52:17.181Z,1.87
2023-04-14T10:55:01.174Z,4.33
2023-04-14T10:57:29.661Z,3.87
2023-04-14T11:00:00.517Z,2.67
2023-04-14T11:02:35.174Z,2.50
2023-04-14T11:05:11.377Z,4.47
2023-04-14T11:07:45.254Z,4.70
2023-04-14T11:10:27.134Z,2.53
2023-04-14T11:13:05.441Z,2.67
2023-04-14T11:16:02.404Z,4.35
2023-04-14T11:18:29.257Z,1.95
2023-04-14T11:21:07.380Z,2.72
2023-04-14T11:23:36.764Z,2.58
2023-04-14T11:26:06.761Z,1.55
2023-04-14T11:28:38.655Z,4.30
2023-04-14T11:31:08.816Z,3.25
2023-04-14T11:33:38.797Z,4.13
2023-04-14T11:36:07.857Z,2.05
2023-04-14T11:38:36.546Z,2.78
2023-04-14T11:41:04.451Z,3.22
2023-04-14T11:43:31.573Z,2.70
2023-04-14T11:46:05.601Z,4.38
2023-04-14T11:48:32.938Z,3.15
2023-04-14T11:51:03.731Z,3.17
2023-04-14T11:53:32.472Z,4.25
2023-04-14T11:56:00.881Z,3.50
2023-04-14T11:58:28.882Z,1.63
2023-04-14T12:00:57.666Z,2.47
2023-04-14T12:06:18.203Z,6.77
2023-04-14T12:08:50.536Z,1.50
2023-04-14T12:11:17.641Z,3.85
2023-04-14T12:13:47.136Z,2.17
2023-04-14T12:16:16.023Z,2.50
2023-04-14T12:18:44.144Z,3.30
2023-04-14T12:21:16.827Z,1.60
2023-04-14T12:23:48.516Z,3.07
2023-04-14T12:26:16.115Z,2.50
2023-04-14T12:28:43.439Z,3.75
2023-04-14T12:31:10.690Z,6.93
2023-04-14T12:33:38.394Z,1.80
2023-04-14T12:36:13.061Z,5.72
2023-04-14T12:38:40.173Z,2.70
2023-04-14T12:41:07.185Z,2.17
2023-04-14T12:43:37.193Z,4.43
2023-04-14T12:46:05.713Z,1.85
2023-04-14T12:48:40.369Z,2.92
2023-04-14T12:51:14.978Z,2.15
2023-04-14T12:53:44.094Z,1.70
2023-04-14T12:56:14.187Z,3.58
2023-04-14T12:58:46.691Z,1.08
2023-04-14T13:01:17.054Z,2.40
2023-04-14T13:03:50.974Z,2.73
2023-04-14T13:06:23.106Z,3.43
2023-04-14T13:08:52.368Z,1.23
2023-04-14T13:11:21.478Z,4.22
2023-04-14T13:13:48.431Z,2.40
2023-04-14T13:16:18.522Z,2.83
2023-04-14T13:18:47.406Z,2.57
2023-04-14T13:21:14.621Z,2.17
2023-04-14T13:23:41.760Z,3.50
2023-04-14T13:26:09.057Z,2.60
2023-04-14T13:28:36.910Z,0.88
2023-04-14T13:31:04.040Z,1.90
2023-04-14T13:33:32.544Z,1.37
2023-04-14T13:35:59.703Z,1.90
2023-04-14T13:38:27.249Z,2.20
2023-04-14T13:40:54.173Z,4.10
2023-04-14T13:43:21.594Z,1.63
2023-04-14T13:45:48.577Z,1.65
2023-04-14T13:48:15.534Z,2.57
2023-04-14T13:50:42.522Z,1.45
2023-04-14T13:53:09.788Z,3.92
2023-04-14T13:55:37.384Z,1.70
2023-04-14T13:58:04.484Z,1.77
2023-04-14T14:00:31.414Z,1.23
2023-04-14T14:02:58.625Z,0.63
2023-04-14T14:05:26.405Z,2.97
2023-04-14T14:07:53.648Z,1.90
2023-04-14T14:10:21.017Z,0.73
2023-04-14T14:12:47.930Z,1.10
2023-04-14T14:15:14.901Z,1.90
2023-04-14T14:17:42.796Z,5.30
2023-04-14T14:20:10.133Z,1.23
2023-04-14T14:22:37.025Z,2.83
2023-04-14T14:25:17.503Z,2.35
2023-04-14T14:27:47.003Z,2.58
2023-04-14T14:30:14.171Z,1.25
2023-04-14T14:32:41.169Z,1.90
2023-04-14T14:35:08.683Z,3.30
2023-04-14T14:37:35.765Z,1.38
2023-04-14T14:40:03.506Z,2.03
2023-04-14T14:42:31.267Z,1.08
2023-04-14T14:45:01.066Z,3.40
2023-04-14T14:47:28.998Z,1.20
2023-04-14T14:50:02.741Z,1.00
2023-04-14T14:52:34.660Z,1.58
2023-04-14T14:55:02.714Z,1.40
2023-04-14T14:57:30.418Z,2.13
2023-04-14T14:59:57.768Z,0.90
2023-04-14T15:02:25.596Z,1.93
2023-04-14T15:04:53.817Z,2.03
2023-04-14T15:07:20.889Z,1.75
2023-04-14T15:09:49.821Z,2.35
2023-04-14T15:12:17.460Z,4.82
2023-04-14T15:14:44.832Z,3.42
2023-04-14T15:17:11.725Z,3.20
2023-04-14T15:19:38.778Z,3.95
2023-04-14T15:22:05.761Z,2.88
2023-04-14T15:24:32.694Z,4.88
2023-04-14T15:26:59.641Z,1.67
2023-04-14T15:29:26.819Z,1.55
2023-04-14T15:31:53.905Z,1.67
2023-04-14T15:34:21.482Z,1.63
2023-04-14T15:36:48.777Z,1.70
2023-04-14T15:39:15.768Z,1.65
2023-04-14T15:41:43.353Z,4.50
2023-04-14T15:44:10.297Z,3.38
2023-04-14T15:46:37.186Z,1.73
2023-04-14T15:49:04.190Z,3.83
2023-04-14T15:51:31.123Z,3.47
2023-04-14T15:53:58.048Z,4.15
2023-04-14T15:56:25.059Z,4.65
2023-04-14T15:58:51.955Z,2.05
2023-04-14T16:01:19.030Z,4.15
2023-04-14T16:03:46.243Z,6.55
2023-04-14T16:06:13.251Z,1.60
2023-04-14T16:08:40.290Z,2.42
2023-04-14T16:11:07.856Z,1.83
2023-04-14T16:13:34.866Z,0.80
2023-04-14T16:16:02.051Z,2.38
2023-04-14T16:18:29.009Z,4.07
2023-04-14T16:20:55.951Z,1.30
2023-04-14T16:23:23.238Z,4.00
2023-04-14T16:25:50.435Z,2.42
2023-04-14T16:28:17.525Z,1.92
2023-04-14T16:30:45.897Z,3.65
2023-04-14T16:33:13.462Z,1.92
2023-04-14T16:35:40.605Z,2.88
2023-04-14T16:38:10.953Z,1.95
2023-04-14T16:40:38.069Z,1.77
2023-04-14T16:43:05.124Z,3.53
2023-04-14T16:45:32.763Z,1.55
2023-04-14T16:48:00.078Z,2.25
2023-04-14T16:50:27.649Z,1.17
2023-04-14T16:52:54.685Z,0.70
2023-04-14T16:55:21.740Z,3.30
2023-04-14T16:57:48.686Z,1.55
2023-04-14T17:00:16.805Z,2.80
2023-04-14T17:02:44.064Z,1.40
2023-04-14T17:05:13.250Z,1.50
2023-04-14T17:07:41.134Z,2.37
2023-04-14T17:10:09.260Z,1.05
2023-04-14T17:12:36.235Z,3.93
2023-04-14T17:15:04.491Z,1.27
2023-04-14T17:17:32.027Z,0.70
2023-04-14T17:19:59.509Z,1.05
2023-04-14T17:22:27.700Z,1.73
2023-04-14T17:24:55.724Z,1.27
2023-04-14T17:27:22.898Z,1.27
2023-04-14T17:29:49.860Z,2.17
2023-04-14T17:32:18.486Z,1.20
2023-04-14T17:34:48.624Z,2.20
2023-04-14T17:37:16.011Z,1.30
2023-04-14T17:39:43.408Z,2.60
2023-04-14T17:42:11.488Z,3.40
2023-04-14T17:44:38.493Z,1.73
2023-04-14T17:47:13.296Z,2.25
2023-04-14T17:49:40.252Z,1.43
2023-04-14T17:52:07.948Z,3.17
2023-04-14T17:54:36.658Z,1.57
2023-04-14T17:57:04.490Z,1.88
2023-04-14T17:59:31.650Z,2.07
2023-04-14T18:01:58.660Z,1.37
2023-04-14T18:04:25.747Z,5.10
2023-04-14T18:06:52.795Z,1.70
2023-04-14T18:09:19.765Z,2.27
2023-04-14T18:11:46.716Z,3.43
2023-04-14T18:14:14.427Z,3.23
2023-04-14T18:16:41.543Z,3.47
2023-04-14T18:19:09.166Z,2.50
2023-04-14T18:21:36.134Z,1.27
2023-04-14T18:26:33.416Z,1.90
2023-04-14T18:29:01.031Z,2.00
2023-04-14T18:31:28.456Z,4.67
2023-04-14T18:33:55.445Z,2.60
2023-04-14T18:36:22.682Z,4.07
2023-04-14T18:38:49.830Z,3.30
2023-04-14T18:41:17.676Z,3.13
2023-04-14T18:43:44.594Z,9.40
2023-04-14T18:46:11.961Z,5.87
2023-04-14T18:48:40.536Z,4.20
2023-04-14T18:51:10.133Z,4.27
2023-04-14T18:53:39.645Z,3.70
2023-04-14T18:56:07.672Z,1.73
2023-04-14T18:58:34.661Z,1.70
2023-04-14T19:01:01.894Z,2.87
2023-04-14T19:03:30.297Z,4.20
2023-04-14T19:05:57.838Z,2.60
2023-04-14T19:08:25.272Z,1.80
2023-04-14T19:10:52.512Z,2.33
2023-04-14T19:13:19.830Z,2.60
2023-04-14T19:15:47.153Z,3.27
2023-04-14T19:18:15.047Z,2.77
2023-04-14T19:20:42.390Z,5.30
2023-04-14T19:23:10.081Z,4.60
2023-04-14T19:25:38.693Z,4.03
2023-04-14T19:28:07.953Z,14.80
2023-04-14T19:30:35.640Z,18.53
2023-04-14T19:33:04.724Z,12.83
2023-04-14T19:35:31.666Z,9.97
2023-04-14T19:37:58.648Z,8.37
2023-04-14T19:40:25.614Z,3.47
2023-04-14T19:42:55.225Z,3.00
2023-04-14T19:45:22.435Z,13.80
2023-04-14T19:47:49.438Z,37.57
2023-04-14T19:50:16.701Z,48.97
2023-04-14T19:52:46.550Z,56.33
2023-04-14T19:55:13.670Z,13.07
2023-04-14T19:57:40.678Z,12.67
2023-04-14T20:00:11.548Z,5.00
2023-04-14T20:02:38.890Z,4.00
2023-04-14T20:05:06.427Z,4.00
2023-04-14T20:07:33.406Z,5.13
2023-04-14T20:10:01.481Z,5.83
2023-04-14T20:12:28.460Z,2.57
2023-04-14T20:14:55.381Z,4.07
2023-04-14T20:17:23.275Z,2.77
2023-04-14T20:19:50.787Z,2.20
2023-04-14T20:22:17.750Z,7.20
2023-04-14T20:24:45.555Z,3.73
2023-04-14T20:27:13.388Z,5.17
2023-04-14T20:29:40.308Z,3.13
2023-04-14T20:32:07.673Z,3.60
2023-04-14T20:34:35.480Z,3.20
2023-04-14T20:37:02.755Z,3.57
2023-04-14T20:39:29.655Z,3.87
2023-04-14T20:41:56.599Z,4.73
2023-04-14T20:44:23.877Z,5.97
2023-04-14T20:46:52.177Z,4.20
2023-04-14T20:49:19.101Z,5.77
2023-04-14T20:51:46.930Z,4.60
2023-04-14T20:54:13.973Z,5.93
2023-04-14T20:56:40.970Z,6.50
2023-04-14T20:59:08.183Z,3.53
2023-04-14T21:01:35.197Z,4.60
2023-04-14T21:04:02.196Z,3.83
2023-04-14T21:06:32.388Z,3.83
2023-04-14T21:09:00.204Z,4.93
2023-04-14T21:11:28.076Z,3.47
2023-04-14T21:15:25.558Z,4.03
2023-04-14T21:16:41.957Z,4.63
2023-04-14T21:19:09.430Z,5.20
2023-04-14T21:21:36.923Z,7.90
2023-04-14T21:24:04.263Z,5.20
2023-04-14T21:26:32.107Z,4.90
2023-04-14T21:28:59.059Z,3.77
2023-04-14T21:31:26.189Z,4.73
2023-04-14T21:33:53.147Z,3.73
2023-04-14T21:36:20.519Z,5.13
2023-04-14T21:38:48.039Z,3.30
2023-04-14T21:41:16.019Z,3.97
2023-04-14T21:43:43.461Z,4.60
2023-04-14T21:46:10.556Z,4.20
2023-04-14T21:48:37.514Z,3.23
2023-04-14T21:51:04.961Z,5.67
2023-04-14T21:53:32.307Z,6.30
2023-04-14T21:56:10.758Z,7.17
2023-04-14T21:58:41.960Z,7.17
2023-04-14T22:01:12.342Z,5.17
2023-04-14T22:03:41.037Z,5.17
2023-04-14T22:06:10.006Z,7.77
2023-04-14T22:08:39.033Z,4.60
2023-04-14T22:11:07.051Z,6.90
2023-04-14T22:13:34.047Z,5.10
2023-04-14T22:16:01.013Z,4.87
2023-04-14T22:18:28.746Z,6.93
2023-04-14T22:20:55.764Z,4.10
2023-04-14T22:23:23.389Z,4.30
2023-04-14T22:25:50.905Z,5.10
2023-04-14T22:28:17.801Z,6.60
2023-04-14T22:30:44.908Z,5.70
2023-04-14T22:33:12.044Z,6.27
2023-04-14T22:35:39.054Z,5.53
2023-04-14T22:38:06.074Z,6.57
2023-04-14T22:40:33.110Z,6.13
2023-04-14T22:43:00.108Z,5.50
2023-04-14T22:45:28.084Z,5.93
2023-04-14T22:47:55.123Z,4.60
2023-04-14T22:50:22.534Z,5.67
2023-04-14T22:52:49.466Z,6.13
2023-04-14T22:55:16.820Z,5.80
2023-04-14T22:57:43.831Z,5.00
2023-04-14T23:00:11.877Z,6.27
2023-04-14T23:02:41.073Z,5.83
2023-04-14T23:05:10.500Z,7.43
2023-04-14T23:07:43.822Z,4.70
2023-04-14T23:10:11.442Z,7.60
2023-04-14T23:12:41.252Z,6.37
2023-04-14T23:15:08.660Z,6.97
2023-04-14T23:17:35.753Z,8.43
2023-04-14T23:20:02.709Z,8.40
2023-04-14T23:22:29.701Z,6.53
2023-04-14T23:24:56.717Z,7.23
2023-04-14T23:27:23.746Z,7.07
2023-04-14T23:29:50.696Z,11.10
2023-04-14T23:32:17.615Z,12.67
2023-04-14T23:34:44.516Z,10.00
2023-04-14T23:37:12.666Z,8.97
2023-04-14T23:39:39.564Z,10.00
2023-04-14T23:42:06.943Z,7.43
2023-04-14T23:44:34.012Z,6.37
2023-04-14T23:47:01.194Z,8.00
2023-04-14T23:49:35.371Z,8.13
2023-04-14T23:52:03.435Z,8.53
2023-04-14T23:54:31.738Z,7.77
2023-04-14T23:56:58.900Z,8.87
2023-04-14T23:59:26.348Z,7.37
